sensor_id;sensor_type;location;lat;lon;timestamp;pressure;altitude;pressure_sealevel;temperature;humidity
41040;BME280;48586;50.122;18.972;2022-08-19T00:02:06;98024.81;;;24.75;55.30
41040;BME280;48586;50.122;18.972;2022-08-19T00:05:10;98040.28;;;24.75;55.36
41040;BME280;48586;50.122;18.972;2022-08-19T00:08:13;98021.47;;;24.69;55.78
41040;BME280;48586;50.122;18.972;2022-08-19T00:11:15;98034.38;;;24.64;55.75
41040;BME280;48586;50.122;18.972;2022-08-19T00:14:18;98034.69;;;24.62;56.03
41040;BME280;48586;50.122;18.972;2022-08-19T00:17:21;98024.47;;;24.59;56.03
41040;BME280;48586;50.122;18.972;2022-08-19T00:20:23;98018.88;;;24.56;56.49
41040;BME280;48586;50.122;18.972;2022-08-19T00:23:27;98018.25;;;24.50;56.54
41040;BME280;48586;50.122;18.972;2022-08-19T00:26:29;98013.25;;;24.43;56.54
41040;BME280;48586;50.122;18.972;2022-08-19T00:29:31;98020.25;;;24.36;56.92
41040;BME280;48586;50.122;18.972;2022-08-19T00:32:33;98007.19;;;24.29;57.16
41040;BME280;48586;50.122;18.972;2022-08-19T00:35:35;98013.22;;;24.26;56.93
41040;BME280;48586;50.122;18.972;2022-08-19T00:38:40;98007.78;;;24.26;57.24
41040;BME280;48586;50.122;18.972;2022-08-19T00:41:46;98009.38;;;24.27;56.90
41040;BME280;48586;50.122;18.972;2022-08-19T00:44:49;97996.16;;;24.26;57.22
41040;BME280;48586;50.122;18.972;2022-08-19T00:47:52;98000.00;;;24.25;57.36
41040;BME280;48586;50.122;18.972;2022-08-19T00:50:54;97996.50;;;24.24;57.54
41040;BME280;48586;50.122;18.972;2022-08-19T00:53:59;97996.00;;;24.22;57.66
41040;BME280;48586;50.122;18.972;2022-08-19T00:57:04;97999.03;;;24.21;57.51
41040;BME280;48586;50.122;18.972;2022-08-19T01:00:12;97992.16;;;24.23;57.96
41040;BME280;48586;50.122;18.972;2022-08-19T01:03:16;97991.69;;;24.21;57.89
41040;BME280;48586;50.122;18.972;2022-08-19T01:06:19;97989.41;;;24.14;57.61
41040;BME280;48586;50.122;18.972;2022-08-19T01:09:23;97990.53;;;24.13;58.02
41040;BME280;48586;50.122;18.972;2022-08-19T01:12:25;97993.06;;;24.10;58.10
41040;BME280;48586;50.122;18.972;2022-08-19T01:15:30;97993.06;;;24.10;57.93
41040;BME280;48586;50.122;18.972;2022-08-19T01:18:36;97986.69;;;24.06;58.23
41040;BME280;48586;50.122;18.972;2022-08-19T01:21:42;97982.81;;;23.98;58.57
41040;BME280;48586;50.122;18.972;2022-08-19T01:24:48;97993.47;;;23.94;58.76
41040;BME280;48586;50.122;18.972;2022-08-19T01:27:51;97984.84;;;23.92;58.47
41040;BME280;48586;50.122;18.972;2022-08-19T01:30:54;97983.56;;;23.90;58.63
41040;BME280;48586;50.122;18.972;2022-08-19T01:33:57;97993.72;;;23.84;58.69
41040;BME280;48586;50.122;18.972;2022-08-19T01:36:59;97995.75;;;23.79;59.05
41040;BME280;48586;50.122;18.972;2022-08-19T01:40:04;97992.38;;;23.73;59.35
41040;BME280;48586;50.122;18.972;2022-08-19T01:43:07;97992.81;;;23.66;59.31
41040;BME280;48586;50.122;18.972;2022-08-19T01:46:09;97990.75;;;23.63;59.55
41040;BME280;48586;50.122;18.972;2022-08-19T01:49:11;97989.78;;;23.59;59.56
41040;BME280;48586;50.122;18.972;2022-08-19T01:52:13;97990.84;;;23.58;59.77
41040;BME280;48586;50.122;18.972;2022-08-19T01:55:19;97991.78;;;23.54;59.98
41040;BME280;48586;50.122;18.972;2022-08-19T01:58:25;97985.38;;;23.50;60.33
41040;BME280;48586;50.122;18.972;2022-08-19T02:01:31;97980.91;;;23.45;60.29
41040;BME280;48586;50.122;18.972;2022-08-19T02:04:35;97975.94;;;23.38;60.18
41040;BME280;48586;50.122;18.972;2022-08-19T02:07:38;97973.84;;;23.35;60.68
41040;BME280;48586;50.122;18.972;2022-08-19T02:10:43;97985.47;;;23.36;60.67
41040;BME280;48586;50.122;18.972;2022-08-19T02:13:45;97984.66;;;23.35;60.64
41040;BME280;48586;50.122;18.972;2022-08-19T02:16:47;97987.06;;;23.37;60.83
41040;BME280;48586;50.122;18.972;2022-08-19T02:19:48;97981.47;;;23.33;60.80
41040;BME280;48586;50.122;18.972;2022-08-19T02:22:50;97980.84;;;23.36;60.76
41040;BME280;48586;50.122;18.972;2022-08-19T02:25:54;97974.97;;;23.34;60.77
41040;BME280;48586;50.122;18.972;2022-08-19T02:28:56;97969.03;;;23.32;60.93
41040;BME280;48586;50.122;18.972;2022-08-19T02:31:58;97966.66;;;23.31;60.89
41040;BME280;48586;50.122;18.972;2022-08-19T02:35:00;97972.66;;;23.28;61.20
41040;BME280;48586;50.122;18.972;2022-08-19T02:38:02;97972.16;;;23.26;61.25
41040;BME280;48586;50.122;18.972;2022-08-19T02:41:25;97981.88;;;23.27;61.21
41040;BME280;48586;50.122;18.972;2022-08-19T02:44:28;97968.16;;;23.23;61.19
41040;BME280;48586;50.122;18.972;2022-08-19T02:47:30;97975.28;;;23.19;61.56
41040;BME280;48586;50.122;18.972;2022-08-19T02:50:32;97964.97;;;23.21;61.45
41040;BME280;48586;50.122;18.972;2022-08-19T02:53:34;97959.06;;;23.19;61.46
41040;BME280;48586;50.122;18.972;2022-08-19T02:56:40;97957.78;;;23.16;61.65
41040;BME280;48586;50.122;18.972;2022-08-19T02:59:42;97956.47;;;23.14;62.03
41040;BME280;48586;50.122;18.972;2022-08-19T03:02:44;97952.66;;;23.15;61.54
41040;BME280;48586;50.122;18.972;2022-08-19T03:05:47;97963.00;;;23.13;61.62
41040;BME280;48586;50.122;18.972;2022-08-19T03:08:50;97960.63;;;23.11;61.74
41040;BME280;48586;50.122;18.972;2022-08-19T03:11:53;97966.31;;;23.10;62.12
41040;BME280;48586;50.122;18.972;2022-08-19T03:14:55;97968.53;;;23.08;62.19
41040;BME280;48586;50.122;18.972;2022-08-19T03:17:57;97958.63;;;23.03;62.37
41040;BME280;48586;50.122;18.972;2022-08-19T03:20:58;97966.56;;;23.00;62.41
41040;BME280;48586;50.122;18.972;2022-08-19T03:24:03;97964.66;;;23.00;62.55
41040;BME280;48586;50.122;18.972;2022-08-19T03:27:07;97948.44;;;23.00;62.57
41040;BME280;48586;50.122;18.972;2022-08-19T03:30:10;97954.63;;;23.01;62.34
41040;BME280;48586;50.122;18.972;2022-08-19T03:33:12;97967.16;;;22.97;62.45
41040;BME280;48586;50.122;18.972;2022-08-19T03:36:18;97973.69;;;22.96;62.72
41040;BME280;48586;50.122;18.972;2022-08-19T03:39:21;97986.38;;;22.95;62.56
41040;BME280;48586;50.122;18.972;2022-08-19T03:42:24;97980.34;;;22.98;62.32
41040;BME280;48586;50.122;18.972;2022-08-19T03:45:27;97977.38;;;23.00;62.46
41040;BME280;48586;50.122;18.972;2022-08-19T03:48:30;97977.38;;;23.00;62.51
41040;BME280;48586;50.122;18.972;2022-08-19T03:51:34;97974.94;;;22.98;63.00
41040;BME280;48586;50.122;18.972;2022-08-19T03:54:36;97994.97;;;22.97;64.59
41040;BME280;48586;50.122;18.972;2022-08-19T03:57:40;97995.28;;;22.96;62.42
41040;BME280;48586;50.122;18.972;2022-08-19T04:00:42;98004.69;;;22.98;62.21
41040;BME280;48586;50.122;18.972;2022-08-19T04:03:44;98000.09;;;22.99;62.43
41040;BME280;48586;50.122;18.972;2022-08-19T04:06:47;98008.09;;;23.04;62.67
41040;BME280;48586;50.122;18.972;2022-08-19T04:09:49;98007.56;;;23.02;62.57
41040;BME280;48586;50.122;18.972;2022-08-19T04:12:53;98005.66;;;23.02;63.00
41040;BME280;48586;50.122;18.972;2022-08-19T04:15:55;98004.88;;;23.02;62.86
41040;BME280;48586;50.122;18.972;2022-08-19T04:19:01;98003.16;;;23.06;62.77
41040;BME280;48586;50.122;18.972;2022-08-19T04:22:04;98013.19;;;23.05;62.83
41040;BME280;48586;50.122;18.972;2022-08-19T04:25:07;98018.28;;;23.07;62.97
41040;BME280;48586;50.122;18.972;2022-08-19T04:28:12;98018.66;;;23.14;62.84
41040;BME280;48586;50.122;18.972;2022-08-19T04:31:16;98024.94;;;23.23;62.64
41040;BME280;48586;50.122;18.972;2022-08-19T04:34:20;98033.34;;;23.35;62.56
41040;BME280;48586;50.122;18.972;2022-08-19T04:37:22;98041.91;;;23.51;62.12
41040;BME280;48586;50.122;18.972;2022-08-19T04:40:25;98037.53;;;23.64;61.90
41040;BME280;48586;50.122;18.972;2022-08-19T04:43:45;98041.09;;;23.73;61.60
41040;BME280;48586;50.122;18.972;2022-08-19T04:46:50;98040.53;;;23.85;61.37
41040;BME280;48586;50.122;18.972;2022-08-19T04:49:52;98039.75;;;23.93;61.65
41040;BME280;48586;50.122;18.972;2022-08-19T04:52:54;98038.72;;;24.03;60.99
41040;BME280;48586;50.122;18.972;2022-08-19T04:55:57;98030.34;;;24.13;61.03
41040;BME280;48586;50.122;18.972;2022-08-19T04:59:00;98027.69;;;24.22;60.92
41040;BME280;48586;50.122;18.972;2022-08-19T05:02:06;98023.41;;;24.29;60.83
41040;BME280;48586;50.122;18.972;2022-08-19T05:05:09;98022.81;;;24.32;60.43
41040;BME280;48586;50.122;18.972;2022-08-19T05:08:11;98023.59;;;24.33;60.23
41040;BME280;48586;50.122;18.972;2022-08-19T05:11:16;98020.09;;;24.32;60.40
41040;BME280;48586;50.122;18.972;2022-08-19T05:14:19;98024.88;;;24.35;60.66
41040;BME280;48586;50.122;18.972;2022-08-19T05:17:22;98023.94;;;24.40;60.50
41040;BME280;48586;50.122;18.972;2022-08-19T05:20:24;98025.41;;;24.46;60.31
41040;BME280;48586;50.122;18.972;2022-08-19T05:23:43;98025.44;;;24.55;59.59
41040;BME280;48586;50.122;18.972;2022-08-19T05:26:48;98033.56;;;24.63;60.02
41040;BME280;48586;50.122;18.972;2022-08-19T05:29:51;98031.50;;;24.69;60.36
41040;BME280;48586;50.122;18.972;2022-08-19T05:32:53;98041.41;;;24.74;59.30
41040;BME280;48586;50.122;18.972;2022-08-19T05:35:56;98044.63;;;24.76;59.04
41040;BME280;48586;50.122;18.972;2022-08-19T05:38:58;98045.28;;;24.81;59.12
41040;BME280;48586;50.122;18.972;2022-08-19T05:42:03;98050.22;;;24.88;59.08
41040;BME280;48586;50.122;18.972;2022-08-19T05:45:09;98037.34;;;24.93;59.29
41040;BME280;48586;50.122;18.972;2022-08-19T05:48:12;98036.06;;;25.00;58.78
41040;BME280;48586;50.122;18.972;2022-08-19T05:51:15;98023.97;;;25.06;59.19
41040;BME280;48586;50.122;18.972;2022-08-19T05:54:17;98043.41;;;25.08;58.59
41040;BME280;48586;50.122;18.972;2022-08-19T05:57:19;98035.44;;;25.11;58.57
41040;BME280;48586;50.122;18.972;2022-08-19T06:00:23;98033.19;;;25.22;58.82
41040;BME280;48586;50.122;18.972;2022-08-19T06:03:26;98039.41;;;25.31;58.84
41040;BME280;48586;50.122;18.972;2022-08-19T06:06:28;98039.75;;;25.47;58.20
41040;BME280;48586;50.122;18.972;2022-08-19T06:09:30;98038.50;;;25.62;58.10
41040;BME280;48586;50.122;18.972;2022-08-19T06:12:33;98041.97;;;25.80;58.05
41040;BME280;48586;50.122;18.972;2022-08-19T06:15:37;98043.88;;;25.97;57.65
41040;BME280;48586;50.122;18.972;2022-08-19T06:18:41;98058.69;;;26.08;56.89
41040;BME280;48586;50.122;18.972;2022-08-19T06:21:46;98052.94;;;26.18;56.61
41040;BME280;48586;50.122;18.972;2022-08-19T06:24:49;98054.34;;;26.24;56.94
41040;BME280;48586;50.122;18.972;2022-08-19T06:27:53;98066.94;;;26.29;56.45
41040;BME280;48586;50.122;18.972;2022-08-19T06:30:56;98059.94;;;26.28;56.34
41040;BME280;48586;50.122;18.972;2022-08-19T06:33:59;98068.88;;;26.28;56.83
41040;BME280;48586;50.122;18.972;2022-08-19T06:37:03;98071.25;;;26.30;56.51
41040;BME280;48586;50.122;18.972;2022-08-19T06:40:07;98066.16;;;26.28;56.45
41040;BME280;48586;50.122;18.972;2022-08-19T06:43:11;98075.91;;;26.29;56.13
41040;BME280;48586;50.122;18.972;2022-08-19T06:46:15;98082.44;;;26.37;56.08
41040;BME280;48586;50.122;18.972;2022-08-19T06:49:18;98083.38;;;26.41;55.89
41040;BME280;48586;50.122;18.972;2022-08-19T06:52:20;98092.94;;;26.47;55.99
41040;BME280;48586;50.122;18.972;2022-08-19T06:55:24;98085.72;;;26.51;55.85
41040;BME280;48586;50.122;18.972;2022-08-19T06:58:28;98086.03;;;26.58;56.02
41040;BME280;48586;50.122;18.972;2022-08-19T07:01:36;98084.06;;;26.67;55.78
41040;BME280;48586;50.122;18.972;2022-08-19T07:04:38;98089.00;;;26.74;55.88
41040;BME280;48586;50.122;18.972;2022-08-19T07:07:41;98096.47;;;26.86;56.05
41040;BME280;48586;50.122;18.972;2022-08-19T07:10:45;98103.31;;;26.92;55.36
41040;BME280;48586;50.122;18.972;2022-08-19T07:13:47;98111.28;;;26.97;55.18
41040;BME280;48586;50.122;18.972;2022-08-19T07:16:51;98113.16;;;27.05;55.13
41040;BME280;48586;50.122;18.972;2022-08-19T07:19:55;98112.91;;;27.19;55.32
41040;BME280;48586;50.122;18.972;2022-08-19T07:22:58;98122.88;;;27.36;55.03
41040;BME280;48586;50.122;18.972;2022-08-19T07:26:05;98122.94;;;27.57;55.14
41040;BME280;48586;50.122;18.972;2022-08-19T07:29:07;98123.44;;;27.71;54.49
41040;BME280;48586;50.122;18.972;2022-08-19T07:32:11;98126.56;;;27.82;54.59
41040;BME280;48586;50.122;18.972;2022-08-19T07:35:13;98132.19;;;27.98;53.98
41040;BME280;48586;50.122;18.972;2022-08-19T07:38:16;98136.03;;;28.18;53.94
41040;BME280;48586;50.122;18.972;2022-08-19T07:41:21;98132.00;;;28.36;53.12
41040;BME280;48586;50.122;18.972;2022-08-19T07:44:24;98138.25;;;28.49;53.27
41040;BME280;48586;50.122;18.972;2022-08-19T07:47:28;98130.78;;;28.70;52.94
41040;BME280;48586;50.122;18.972;2022-08-19T07:50:30;98139.94;;;28.86;52.71
41040;BME280;48586;50.122;18.972;2022-08-19T07:53:34;98140.03;;;29.02;52.11
41040;BME280;48586;50.122;18.972;2022-08-19T07:56:37;98136.63;;;29.18;51.88
41040;BME280;48586;50.122;18.972;2022-08-19T07:59:40;98130.34;;;29.29;51.53
41040;BME280;48586;50.122;18.972;2022-08-19T08:02:43;98135.59;;;29.47;50.81
41040;BME280;48586;50.122;18.972;2022-08-19T08:05:45;98137.13;;;29.60;50.76
41040;BME280;48586;50.122;18.972;2022-08-19T08:09:06;98142.47;;;29.69;50.57
41040;BME280;48586;50.122;18.972;2022-08-19T08:12:25;98133.66;;;29.75;50.61
41040;BME280;48586;50.122;18.972;2022-08-19T08:15:28;98132.03;;;29.86;50.48
41040;BME280;48586;50.122;18.972;2022-08-19T08:18:32;98135.66;;;30.03;49.67
41040;BME280;48586;50.122;18.972;2022-08-19T08:21:42;98135.13;;;30.13;49.86
41040;BME280;48586;50.122;18.972;2022-08-19T08:24:44;98132.69;;;30.24;49.66
41040;BME280;48586;50.122;18.972;2022-08-19T08:27:46;98125.13;;;30.33;49.75
41040;BME280;48586;50.122;18.972;2022-08-19T08:30:50;98120.97;;;30.39;49.65
41040;BME280;48586;50.122;18.972;2022-08-19T08:33:54;98117.44;;;30.38;49.38
41040;BME280;48586;50.122;18.972;2022-08-19T08:36:57;98112.78;;;30.39;49.39
41040;BME280;48586;50.122;18.972;2022-08-19T08:40:03;98129.09;;;30.51;49.10
41040;BME280;48586;50.122;18.972;2022-08-19T08:43:11;98126.22;;;30.76;49.21
41040;BME280;48586;50.122;18.972;2022-08-19T08:46:18;98128.66;;;30.97;48.59
41040;BME280;48586;50.122;18.972;2022-08-19T08:49:31;98111.97;;;31.18;48.03
41040;BME280;48586;50.122;18.972;2022-08-19T08:52:39;98115.47;;;31.34;47.47
41040;BME280;48586;50.122;18.972;2022-08-19T08:55:46;98104.81;;;31.48;47.26
41040;BME280;48586;50.122;18.972;2022-08-19T08:58:54;98104.25;;;31.58;46.87
41040;BME280;48586;50.122;18.972;2022-08-19T09:01:59;98101.28;;;31.67;46.86
41040;BME280;48586;50.122;18.972;2022-08-19T09:05:04;98103.09;;;31.79;46.10
41040;BME280;48586;50.122;18.972;2022-08-19T09:08:12;98106.56;;;31.95;45.14
41040;BME280;48586;50.122;18.972;2022-08-19T09:11:24;98104.16;;;32.13;44.83
41040;BME280;48586;50.122;18.972;2022-08-19T09:14:37;98099.28;;;32.45;44.56
41040;BME280;48586;50.122;18.972;2022-08-19T09:17:43;98104.81;;;32.72;43.32
41040;BME280;48586;50.122;18.972;2022-08-19T09:20:47;98103.22;;;32.94;40.26
41040;BME280;48586;50.122;18.972;2022-08-19T09:23:49;98103.84;;;32.83;41.48
41040;BME280;48586;50.122;18.972;2022-08-19T09:26:51;98108.34;;;32.72;42.12
41040;BME280;48586;50.122;18.972;2022-08-19T09:29:54;98113.59;;;32.81;41.57
41040;BME280;48586;50.122;18.972;2022-08-19T09:32:56;98110.34;;;32.52;40.59
41040;BME280;48586;50.122;18.972;2022-08-19T09:36:08;98114.81;;;32.37;39.92
41040;BME280;48586;50.122;18.972;2022-08-19T09:39:10;98113.59;;;32.35;41.23
41040;BME280;48586;50.122;18.972;2022-08-19T09:42:12;98111.75;;;32.43;41.36
41040;BME280;48586;50.122;18.972;2022-08-19T09:45:16;98120.13;;;32.50;41.48
41040;BME280;48586;50.122;18.972;2022-08-19T09:48:20;98114.19;;;32.48;41.72
41040;BME280;48586;50.122;18.972;2022-08-19T09:51:27;98114.63;;;32.50;41.19
41040;BME280;48586;50.122;18.972;2022-08-19T09:54:30;98116.28;;;32.54;41.45
41040;BME280;48586;50.122;18.972;2022-08-19T09:57:32;98123.28;;;32.52;41.03
41040;BME280;48586;50.122;18.972;2022-08-19T10:00:36;98122.63;;;32.35;41.08
41040;BME280;48586;50.122;18.972;2022-08-19T10:03:39;98119.06;;;32.35;41.54
41040;BME280;48586;50.122;18.972;2022-08-19T10:06:42;98122.00;;;32.46;41.35
41040;BME280;48586;50.122;18.972;2022-08-19T10:09:44;98115.34;;;32.70;41.49
41040;BME280;48586;50.122;18.972;2022-08-19T10:12:47;98118.97;;;32.97;40.06
41040;BME280;48586;50.122;18.972;2022-08-19T10:15:50;98122.88;;;33.22;40.52
41040;BME280;48586;50.122;18.972;2022-08-19T10:18:56;98110.97;;;33.71;40.01
41040;BME280;48586;50.122;18.972;2022-08-19T10:22:03;98106.44;;;34.64;38.83
41040;BME280;48586;50.122;18.972;2022-08-19T10:25:07;98106.16;;;35.35;37.68
41040;BME280;48586;50.122;18.972;2022-08-19T10:28:09;98108.78;;;35.10;35.41
41040;BME280;48586;50.122;18.972;2022-08-19T10:31:14;98117.09;;;34.66;36.00
41040;BME280;48586;50.122;18.972;2022-08-19T10:34:20;98105.94;;;34.48;36.43
41040;BME280;48586;50.122;18.972;2022-08-19T10:37:24;98101.88;;;34.82;36.26
41040;BME280;48586;50.122;18.972;2022-08-19T10:40:27;98096.78;;;35.43;35.53
41040;BME280;48586;50.122;18.972;2022-08-19T10:43:29;98083.59;;;35.92;35.16
41040;BME280;48586;50.122;18.972;2022-08-19T10:46:32;98091.59;;;36.43;34.30
41040;BME280;48586;50.122;18.972;2022-08-19T10:49:35;98089.22;;;36.81;33.71
41040;BME280;48586;50.122;18.972;2022-08-19T10:53:03;98086.00;;;37.22;33.02
41040;BME280;48586;50.122;18.972;2022-08-19T10:56:05;98085.03;;;37.75;32.54
41040;BME280;48586;50.122;18.972;2022-08-19T10:59:30;98076.50;;;38.18;31.71
41040;BME280;48586;50.122;18.972;2022-08-19T11:02:32;98071.56;;;37.88;31.34
41040;BME280;48586;50.122;18.972;2022-08-19T11:05:36;98083.47;;;37.74;29.82
41040;BME280;48586;50.122;18.972;2022-08-19T11:08:40;98097.28;;;37.88;30.16
41040;BME280;48586;50.122;18.972;2022-08-19T11:11:45;98094.53;;;37.81;31.15
41040;BME280;48586;50.122;18.972;2022-08-19T11:14:48;98077.69;;;38.27;28.97
41040;BME280;48586;50.122;18.972;2022-08-19T11:17:51;98083.22;;;38.20;30.17
41040;BME280;48586;50.122;18.972;2022-08-19T11:20:55;98079.66;;;38.20;29.36
41040;BME280;48586;50.122;18.972;2022-08-19T11:24:10;98078.91;;;38.68;29.13
41040;BME280;48586;50.122;18.972;2022-08-19T11:27:13;98078.22;;;39.01;28.94
41040;BME280;48586;50.122;18.972;2022-08-19T11:30:15;98067.88;;;38.64;29.60
41040;BME280;48586;50.122;18.972;2022-08-19T11:33:17;98063.63;;;37.97;29.68
41040;BME280;48586;50.122;18.972;2022-08-19T11:36:20;98072.44;;;37.67;29.81
41040;BME280;48586;50.122;18.972;2022-08-19T11:39:25;98072.66;;;37.02;27.63
41040;BME280;48586;50.122;18.972;2022-08-19T11:42:27;98071.84;;;36.27;30.19
41040;BME280;48586;50.122;18.972;2022-08-19T11:45:47;98064.25;;;35.77;31.07
41040;BME280;48586;50.122;18.972;2022-08-19T11:48:49;98072.41;;;35.52;31.22
41040;BME280;48586;50.122;18.972;2022-08-19T11:51:51;98069.53;;;35.27;31.91
41040;BME280;48586;50.122;18.972;2022-08-19T11:54:55;98064.38;;;35.22;31.73
41040;BME280;48586;50.122;18.972;2022-08-19T11:57:57;98064.78;;;35.28;32.13
41040;BME280;48586;50.122;18.972;2022-08-19T12:00:59;98067.66;;;35.39;31.97
41040;BME280;48586;50.122;18.972;2022-08-19T12:04:01;98066.78;;;35.31;31.60
41040;BME280;48586;50.122;18.972;2022-08-19T12:07:04;98062.75;;;35.14;31.89
41040;BME280;48586;50.122;18.972;2022-08-19T12:10:08;98063.88;;;35.06;32.24
41040;BME280;48586;50.122;18.972;2022-08-19T12:13:11;98063.44;;;34.97;30.92
41040;BME280;48586;50.122;18.972;2022-08-19T12:16:18;98057.94;;;34.97;32.71
41040;BME280;48586;50.122;18.972;2022-08-19T12:19:21;98050.13;;;35.06;32.83
41040;BME280;48586;50.122;18.972;2022-08-19T12:22:25;98056.19;;;35.37;32.64
41040;BME280;48586;50.122;18.972;2022-08-19T12:25:29;98046.03;;;35.51;32.78
41040;BME280;48586;50.122;18.972;2022-08-19T12:28:32;98044.47;;;35.47;32.20
41040;BME280;48586;50.122;18.972;2022-08-19T12:31:34;98036.59;;;35.52;31.40
41040;BME280;48586;50.122;18.972;2022-08-19T12:34:36;98039.72;;;35.54;31.75
41040;BME280;48586;50.122;18.972;2022-08-19T12:37:39;98035.03;;;35.55;31.84
41040;BME280;48586;50.122;18.972;2022-08-19T12:40:47;98029.50;;;35.51;32.37
41040;BME280;48586;50.122;18.972;2022-08-19T12:43:50;98028.31;;;35.52;32.49
41040;BME280;48586;50.122;18.972;2022-08-19T12:46:52;98027.88;;;35.40;32.62
41040;BME280;48586;50.122;18.972;2022-08-19T12:49:54;98035.28;;;35.32;32.29
41040;BME280;48586;50.122;18.972;2022-08-19T12:52:57;98028.97;;;35.24;32.26
41040;BME280;48586;50.122;18.972;2022-08-19T12:56:01;98027.09;;;35.39;31.57
41040;BME280;48586;50.122;18.972;2022-08-19T12:59:03;98022.44;;;35.57;31.72
41040;BME280;48586;50.122;18.972;2022-08-19T13:02:07;98021.28;;;35.73;31.70
41040;BME280;48586;50.122;18.972;2022-08-19T13:05:12;98019.31;;;35.80;30.11
41040;BME280;48586;50.122;18.972;2022-08-19T13:08:15;98011.06;;;35.80;31.56
41040;BME280;48586;50.122;18.972;2022-08-19T13:11:20;98016.22;;;35.93;30.71
41040;BME280;48586;50.122;18.972;2022-08-19T13:14:25;98015.06;;;36.01;31.63
41040;BME280;48586;50.122;18.972;2022-08-19T13:17:27;98019.78;;;36.04;31.41
41040;BME280;48586;50.122;18.972;2022-08-19T13:20:29;98018.22;;;36.06;31.07
41040;BME280;48586;50.122;18.972;2022-08-19T13:23:32;98012.72;;;36.17;31.01
41040;BME280;48586;50.122;18.972;2022-08-19T13:26:35;98012.31;;;36.15;31.58
41040;BME280;48586;50.122;18.972;2022-08-19T13:29:39;98015.88;;;36.26;30.75
41040;BME280;48586;50.122;18.972;2022-08-19T13:32:59;98011.13;;;36.30;30.75
41040;BME280;48586;50.122;18.972;2022-08-19T13:36:14;98010.38;;;36.44;30.65
41040;BME280;48586;50.122;18.972;2022-08-19T13:39:16;98009.97;;;36.49;31.01
41040;BME280;48586;50.122;18.972;2022-08-19T13:42:20;98009.97;;;36.53;30.21
41040;BME280;48586;50.122;18.972;2022-08-19T13:45:24;98004.84;;;36.41;30.38
41040;BME280;48586;50.122;18.972;2022-08-19T13:48:26;98004.06;;;36.44;30.12
41040;BME280;48586;50.122;18.972;2022-08-19T13:51:29;98004.03;;;36.33;30.53
41040;BME280;48586;50.122;18.972;2022-08-19T13:54:31;97989.84;;;36.27;29.50
41040;BME280;48586;50.122;18.972;2022-08-19T13:57:35;97993.78;;;36.19;30.48
41040;BME280;48586;50.122;18.972;2022-08-19T14:00:42;97987.88;;;36.28;30.89
41040;BME280;48586;50.122;18.972;2022-08-19T14:03:45;97982.75;;;36.33;31.00
41040;BME280;48586;50.122;18.972;2022-08-19T14:06:47;97988.31;;;36.37;31.14
41040;BME280;48586;50.122;18.972;2022-08-19T14:09:50;97991.03;;;36.30;30.61
41040;BME280;48586;50.122;18.972;2022-08-19T14:12:54;97990.66;;;36.24;30.63
41040;BME280;48586;50.122;18.972;2022-08-19T14:15:59;97985.13;;;36.14;31.46
41040;BME280;48586;50.122;18.972;2022-08-19T14:19:02;97985.13;;;36.17;31.43
41040;BME280;48586;50.122;18.972;2022-08-19T14:22:04;97983.53;;;36.13;31.04
41040;BME280;48586;50.122;18.972;2022-08-19T14:25:09;97978.41;;;36.25;31.21
41040;BME280;48586;50.122;18.972;2022-08-19T14:28:13;97976.44;;;36.37;30.82
41040;BME280;48586;50.122;18.972;2022-08-19T14:31:17;97972.91;;;36.43;31.10
41040;BME280;48586;50.122;18.972;2022-08-19T14:34:20;97977.25;;;36.55;31.44
41040;BME280;48586;50.122;18.972;2022-08-19T14:37:23;97972.50;;;36.59;31.13
41040;BME280;48586;50.122;18.972;2022-08-19T14:40:28;97960.69;;;36.58;31.00
41040;BME280;48586;50.122;18.972;2022-08-19T14:43:32;97957.88;;;36.62;31.57
41040;BME280;48586;50.122;18.972;2022-08-19T14:46:34;97955.13;;;36.62;31.17
41040;BME280;48586;50.122;18.972;2022-08-19T14:49:37;97946.84;;;36.62;31.24
41040;BME280;48586;50.122;18.972;2022-08-19T14:52:40;97941.72;;;36.61;31.09
41040;BME280;48586;50.122;18.972;2022-08-19T14:55:42;97940.94;;;36.60;31.12
41040;BME280;48586;50.122;18.972;2022-08-19T14:58:47;97929.91;;;36.60;31.37
41040;BME280;48586;50.122;18.972;2022-08-19T15:01:52;97934.63;;;36.56;31.79
41040;BME280;48586;50.122;18.972;2022-08-19T15:04:54;97928.34;;;36.45;31.05
41040;BME280;48586;50.122;18.972;2022-08-19T15:07:57;97922.44;;;36.39;31.23
41040;BME280;48586;50.122;18.972;2022-08-19T15:11:00;97934.28;;;36.40;30.97
41040;BME280;48586;50.122;18.972;2022-08-19T15:14:05;97937.81;;;36.33;31.10
41040;BME280;48586;50.122;18.972;2022-08-19T15:17:08;97935.47;;;36.03;31.19
41040;BME280;48586;50.122;18.972;2022-08-19T15:20:13;97929.13;;;35.74;32.15
41040;BME280;48586;50.122;18.972;2022-08-19T15:23:16;97922.00;;;35.44;32.00
41040;BME280;48586;50.122;18.972;2022-08-19T15:26:21;97919.91;;;35.13;32.50
41040;BME280;48586;50.122;18.972;2022-08-19T15:29:27;97911.56;;;34.88;32.35
41040;BME280;48586;50.122;18.972;2022-08-19T15:32:29;97913.78;;;34.64;32.30
41040;BME280;48586;50.122;18.972;2022-08-19T15:35:32;97909.72;;;34.40;33.64
41040;BME280;48586;50.122;18.972;2022-08-19T15:38:35;97898.56;;;34.22;34.04
41040;BME280;48586;50.122;18.972;2022-08-19T15:41:39;97886.69;;;34.04;34.15
41040;BME280;48586;50.122;18.972;2022-08-19T15:44:43;97891.22;;;33.85;34.50
41040;BME280;48586;50.122;18.972;2022-08-19T15:47:46;97892.28;;;33.74;34.34
41040;BME280;48586;50.122;18.972;2022-08-19T15:50:49;97893.00;;;33.67;34.52
41040;BME280;48586;50.122;18.972;2022-08-19T15:53:51;97897.25;;;33.57;34.83
41040;BME280;48586;50.122;18.972;2022-08-19T15:56:55;97914.41;;;33.47;35.05
41040;BME280;48586;50.122;18.972;2022-08-19T16:00:16;97925.69;;;33.39;35.22
41040;BME280;48586;50.122;18.972;2022-08-19T16:03:36;97936.16;;;33.29;35.60